Terminal Aerodrome Forecast
Issued by NWS Sioux Falls, SD

Home | Current Version | Previous Version | Text Only | Print | Product List | Glossary Off
Versions: 1 2 3 4 5 6 7 8 9 10 11 12 13

000
FTUS43 KFSD 151742
TAFFSD
TAF
KFSD 151742Z 1518/1618 01009KT P6SM BKN050
     FM152100 36008KT P6SM SCT060
     FM160000 VRB03KT P6SM SKC
     FM161100 16004KT P6SM MIFG SKC
     FM161430 17008KT P6SM SCT045=

USA.gov is the U.S. government's official web portal to all federal, state and local government web resources and services.